createdAt,value
2022-12-05T00:02:53.592Z,17.00
2022-12-05T00:05:54.990Z,17.67
2022-12-05T00:08:57.151Z,18.30
2022-12-05T00:11:58.592Z,18.80
2022-12-05T00:14:59.991Z,17.53
2022-12-05T00:18:01.378Z,18.33
2022-12-05T00:21:02.859Z,17.70
2022-12-05T00:24:06.192Z,18.47
2022-12-05T00:27:07.651Z,18.77
2022-12-05T00:30:09.433Z,17.43
2022-12-05T00:33:10.841Z,19.53
2022-12-05T00:36:18.617Z,19.23
2022-12-05T00:39:20.011Z,19.23
2022-12-05T00:42:21.409Z,19.83
2022-12-05T00:45:22.794Z,19.27
2022-12-05T00:48:24.212Z,19.83
2022-12-05T00:51:28.831Z,19.57
2022-12-05T00:54:30.314Z,18.50
2022-12-05T00:57:32.183Z,19.30
2022-12-05T01:00:33.576Z,19.43
2022-12-05T01:03:35.458Z,18.77
2022-12-05T01:06:38.700Z,18.83
2022-12-05T01:09:40.138Z,19.30
2022-12-05T01:12:41.550Z,19.33
2022-12-05T01:15:42.938Z,19.40
2022-12-05T01:18:44.467Z,20.60
2022-12-05T01:21:47.697Z,19.43
2022-12-05T01:24:49.101Z,19.93
2022-12-05T01:27:50.568Z,20.47
2022-12-05T01:30:52.005Z,19.30
2022-12-05T01:33:57.487Z,21.03
2022-12-05T01:36:58.942Z,21.97
2022-12-05T01:40:00.375Z,20.20
2022-12-05T01:43:02.759Z,20.87
2022-12-05T01:46:04.258Z,20.93
2022-12-05T01:49:11.924Z,22.03
2022-12-05T01:52:23.523Z,20.10
2022-12-05T01:55:25.101Z,20.43
2022-12-05T01:58:31.646Z,20.47
2022-12-05T02:01:33.779Z,21.63
2022-12-05T02:04:41.990Z,19.57
2022-12-05T02:07:44.055Z,19.73
2022-12-05T02:10:49.917Z,20.23
2022-12-05T02:13:57.262Z,20.63
2022-12-05T02:17:12.066Z,20.47
2022-12-05T02:20:44.654Z,19.77
2022-12-05T02:24:13.857Z,18.00
2022-12-05T02:27:40.057Z,19.50
2022-12-05T02:30:56.519Z,18.07
2022-12-05T02:34:21.313Z,17.40
2022-12-05T02:37:45.917Z,17.20
2022-12-05T02:41:31.676Z,17.47
2022-12-05T02:44:37.733Z,16.63
2022-12-05T02:47:46.586Z,18.37
2022-12-05T02:50:51.965Z,17.87
2022-12-05T02:53:56.264Z,17.43
2022-12-05T02:56:59.991Z,18.20
2022-12-05T03:00:01.533Z,18.70
2022-12-05T03:03:13.890Z,17.90
2022-12-05T03:06:20.919Z,18.27
2022-12-05T03:09:28.540Z,18.83
2022-12-05T03:12:36.809Z,19.27
2022-12-05T03:15:45.733Z,18.70
2022-12-05T03:19:01.424Z,18.57
2022-12-05T03:22:19.064Z,19.00
2022-12-05T03:25:25.496Z,19.50
2022-12-05T03:28:38.824Z,19.57
2022-12-05T03:32:13.659Z,19.73
2022-12-05T03:35:22.468Z,18.37
2022-12-05T03:38:33.589Z,18.40
2022-12-05T03:41:43.051Z,17.57
2022-12-05T03:45:11.032Z,18.23
2022-12-05T03:48:23.206Z,17.97
2022-12-05T03:51:34.231Z,17.07
2022-12-05T03:54:41.085Z,18.47
2022-12-05T03:57:53.387Z,17.67
2022-12-05T04:00:57.318Z,16.47
2022-12-05T04:04:19.430Z,16.90
2022-12-05T04:07:22.859Z,18.17
2022-12-05T04:10:28.998Z,17.47
2022-12-05T04:13:36.359Z,16.73
2022-12-05T04:17:04.612Z,16.90
2022-12-05T04:20:35.952Z,17.20
2022-12-05T04:23:37.377Z,17.70
2022-12-05T04:26:45.938Z,16.23
2022-12-05T04:30:10.564Z,18.07
2022-12-05T04:33:33.349Z,16.30
2022-12-05T04:36:38.581Z,17.33
2022-12-05T04:39:57.827Z,17.43
2022-12-05T04:43:02.056Z,17.23
2022-12-05T04:46:06.807Z,17.13
2022-12-05T04:49:11.878Z,18.33
2022-12-05T04:52:14.167Z,16.77
2022-12-05T04:55:20.543Z,17.60
2022-12-05T04:58:25.020Z,17.40
2022-12-05T05:01:37.258Z,17.70
2022-12-05T05:04:44.619Z,17.50
2022-12-05T05:07:52.281Z,17.73
2022-12-05T05:11:14.593Z,17.97
2022-12-05T05:14:16.038Z,17.00
2022-12-05T05:17:17.427Z,17.07
2022-12-05T05:20:24.811Z,17.83
2022-12-05T05:23:26.203Z,15.90
2022-12-05T05:26:29.037Z,14.63
2022-12-05T05:29:30.498Z,15.07
2022-12-05T05:32:35.318Z,17.13
2022-12-05T05:35:37.382Z,15.53
2022-12-05T05:38:49.486Z,15.50
2022-12-05T05:41:50.873Z,15.13
2022-12-05T05:44:52.318Z,15.77
2022-12-05T05:47:53.834Z,16.27
2022-12-05T05:50:55.229Z,16.43
2022-12-05T05:53:57.974Z,16.73
2022-12-05T05:56:59.381Z,16.13
2022-12-05T06:00:01.068Z,15.93
2022-12-05T06:03:02.671Z,16.40
2022-12-05T06:06:07.303Z,15.70
2022-12-05T06:09:08.717Z,15.17
2022-12-05T06:12:10.235Z,14.63
2022-12-05T06:15:12.415Z,15.27
2022-12-05T06:18:13.908Z,16.00
2022-12-05T06:21:16.499Z,15.83
2022-12-05T06:24:18.246Z,15.53
2022-12-05T06:27:19.638Z,16.30
2022-12-05T06:30:21.052Z,16.67
2022-12-05T06:33:22.463Z,14.80
2022-12-05T06:36:23.908Z,15.80
2022-12-05T06:39:25.346Z,15.97
2022-12-05T06:42:26.741Z,17.03
2022-12-05T06:45:28.154Z,15.87
2022-12-05T06:48:29.595Z,17.23
2022-12-05T06:51:31.072Z,17.37
2022-12-05T06:54:32.745Z,17.53
2022-12-05T06:57:34.215Z,17.27
2022-12-05T07:00:54.195Z,16.33
2022-12-05T07:03:55.624Z,14.93
2022-12-05T07:06:57.201Z,14.63
2022-12-05T07:09:58.688Z,16.27
2022-12-05T07:13:00.332Z,15.57
2022-12-05T07:16:02.253Z,15.47
2022-12-05T07:19:03.706Z,15.73
2022-12-05T07:22:06.629Z,16.23
2022-12-05T07:25:10.947Z,16.40
2022-12-05T07:28:12.329Z,15.60
2022-12-05T07:31:18.335Z,14.80
2022-12-05T07:34:19.749Z,16.60
2022-12-05T07:37:21.159Z,14.67
2022-12-05T07:40:22.573Z,14.00
2022-12-05T07:43:24.233Z,14.30
2022-12-05T07:46:27.737Z,13.53
2022-12-05T07:49:29.211Z,13.53
2022-12-05T07:52:30.643Z,13.93
2022-12-05T07:55:32.104Z,13.30
2022-12-05T07:58:35.113Z,13.50
2022-12-05T08:01:36.936Z,13.57
2022-12-05T08:04:38.368Z,12.80
2022-12-05T08:07:39.885Z,13.03
2022-12-05T08:10:41.383Z,14.40
2022-12-05T08:13:43.209Z,13.83
2022-12-05T08:16:44.788Z,13.17
2022-12-05T08:19:46.199Z,13.33
2022-12-05T08:22:47.650Z,13.63
2022-12-05T08:25:49.045Z,12.37
2022-12-05T08:29:02.680Z,13.53
2022-12-05T08:32:04.299Z,13.43
2022-12-05T08:35:05.843Z,12.90
2022-12-05T08:38:07.396Z,13.40
2022-12-05T08:41:11.909Z,13.77
2022-12-05T08:44:18.348Z,13.37
2022-12-05T08:47:19.848Z,13.73
2022-12-05T08:50:21.319Z,13.97
2022-12-05T08:53:22.750Z,14.13
2022-12-05T08:56:27.040Z,14.97
2022-12-05T08:59:29.148Z,14.30
2022-12-05T09:02:30.649Z,16.97
2022-12-05T09:05:32.474Z,16.40
2022-12-05T09:08:34.156Z,14.50
2022-12-05T09:11:40.651Z,14.20
2022-12-05T09:14:42.054Z,13.90
2022-12-05T09:17:43.505Z,12.87
2022-12-05T09:20:44.939Z,13.13
2022-12-05T09:23:47.537Z,14.33
2022-12-05T09:26:48.967Z,12.30
2022-12-05T09:29:50.352Z,13.63
2022-12-05T09:32:51.801Z,12.13
2022-12-05T09:35:53.661Z,12.23
2022-12-05T09:38:59.186Z,12.63
2022-12-05T09:42:12.968Z,11.90
2022-12-05T09:45:28.990Z,11.97
2022-12-05T09:48:31.397Z,13.07
2022-12-05T09:51:38.333Z,12.20
2022-12-05T09:54:39.763Z,12.17
2022-12-05T09:57:47.233Z,12.07
2022-12-05T10:00:59.031Z,12.57
2022-12-05T10:04:39.439Z,11.97
2022-12-05T10:07:51.553Z,11.67
2022-12-05T10:11:17.894Z,12.23
2022-12-05T10:14:22.220Z,12.17
2022-12-05T10:17:28.661Z,12.37
2022-12-05T10:20:46.797Z,12.70
2022-12-05T10:24:17.501Z,11.80
2022-12-05T10:27:41.686Z,12.07
2022-12-05T10:30:46.027Z,11.97
2022-12-05T10:33:54.477Z,12.20
2022-12-05T10:37:09.933Z,12.70
2022-12-05T10:40:14.920Z,13.10
2022-12-05T10:43:27.502Z,11.80
2022-12-05T10:46:29.417Z,11.93
2022-12-05T10:49:32.591Z,13.20
2022-12-05T10:52:35.267Z,11.87
2022-12-05T10:55:47.203Z,11.90
2022-12-05T10:59:01.719Z,13.13
2022-12-05T11:02:03.485Z,13.17
2022-12-05T11:05:05.795Z,12.90
2022-12-05T11:08:35.624Z,12.93
2022-12-05T11:12:00.131Z,12.97
2022-12-05T11:15:05.576Z,12.37
2022-12-05T11:18:30.865Z,13.07
2022-12-05T11:21:42.500Z,12.27
2022-12-05T11:24:44.755Z,12.63
2022-12-05T11:27:46.180Z,13.00
2022-12-05T11:31:04.634Z,13.53
2022-12-05T11:34:21.295Z,12.87
2022-12-05T11:37:29.293Z,13.73
2022-12-05T11:40:39.121Z,13.40
2022-12-05T11:44:07.816Z,13.10
2022-12-05T11:47:38.007Z,12.43
2022-12-05T11:51:04.505Z,13.10
2022-12-05T11:55:04.396Z,16.70
2022-12-05T11:58:16.716Z,14.33
2022-12-05T12:01:47.060Z,13.40
2022-12-05T12:04:54.611Z,15.27
2022-12-05T12:08:18.014Z,13.90
2022-12-05T12:11:36.213Z,15.00
2022-12-05T12:14:52.770Z,12.57
2022-12-05T12:18:12.467Z,12.43
2022-12-05T12:21:26.360Z,13.00
2022-12-05T12:24:52.428Z,13.00
2022-12-05T12:28:07.447Z,12.97
2022-12-05T12:32:00.153Z,13.63
2022-12-05T12:35:05.105Z,13.83
2022-12-05T12:38:31.741Z,13.37
2022-12-05T12:41:55.218Z,13.37
2022-12-05T12:45:21.034Z,13.93
2022-12-05T12:49:07.348Z,14.27
2022-12-05T12:52:16.000Z,14.47
2022-12-05T12:56:01.955Z,14.50
2022-12-05T12:59:42.683Z,16.50
2022-12-05T13:03:13.107Z,13.93
2022-12-05T13:06:14.498Z,13.23
2022-12-05T13:09:33.522Z,14.63
2022-12-05T13:12:39.686Z,14.67
2022-12-05T13:15:47.761Z,14.40
2022-12-05T13:18:49.707Z,13.30
2022-12-05T13:21:53.137Z,14.20
2022-12-05T13:24:55.867Z,15.60
2022-12-05T13:28:01.168Z,14.13
2022-12-05T13:31:04.645Z,14.03
2022-12-05T13:34:06.527Z,14.20
2022-12-05T13:37:37.428Z,15.13
2022-12-05T13:41:07.733Z,12.77
2022-12-05T13:44:12.304Z,12.10
2022-12-05T13:47:22.930Z,12.37
2022-12-05T13:50:30.265Z,13.37
2022-12-05T13:53:38.691Z,13.60
2022-12-05T13:57:01.727Z,12.20
2022-12-05T14:00:09.176Z,10.93
2022-12-05T14:03:34.649Z,10.97
2022-12-05T14:06:37.971Z,10.17
2022-12-05T14:09:54.112Z,10.10
2022-12-05T14:12:58.269Z,10.67
2022-12-05T14:16:24.649Z,10.57
2022-12-05T14:19:34.534Z,9.80
2022-12-05T14:23:21.061Z,9.10
2022-12-05T14:26:32.236Z,9.30
2022-12-05T14:29:56.687Z,8.80
2022-12-05T14:33:01.703Z,7.93
2022-12-05T14:36:12.862Z,6.73
2022-12-05T14:39:31.687Z,6.50
2022-12-05T14:42:38.746Z,6.20
2022-12-05T14:45:57.891Z,5.43
2022-12-05T14:49:38.208Z,5.90
2022-12-05T14:52:41.651Z,5.13
2022-12-05T14:55:44.849Z,5.20
2022-12-05T14:58:50.311Z,4.50
2022-12-05T15:01:55.829Z,4.37
2022-12-05T15:05:00.743Z,4.20
2022-12-05T15:08:05.426Z,4.40
2022-12-05T15:11:07.259Z,4.10
2022-12-05T15:14:08.589Z,4.03
2022-12-05T15:17:15.873Z,4.10
2022-12-05T15:20:44.189Z,4.30
2022-12-05T15:23:48.512Z,4.00
2022-12-05T15:26:58.632Z,3.50
2022-12-05T15:30:00.161Z,3.90
2022-12-05T15:33:02.217Z,3.60
2022-12-05T15:36:04.263Z,3.27
2022-12-05T15:39:18.442Z,3.63
2022-12-05T15:42:29.029Z,3.20
2022-12-05T15:45:31.781Z,3.60
2022-12-05T15:48:33.242Z,3.13
2022-12-05T15:51:38.191Z,2.80
2022-12-05T15:54:40.031Z,3.13
2022-12-05T15:57:47.078Z,3.20
2022-12-05T16:00:53.636Z,33.23
2022-12-05T16:04:14.576Z,10.70
2022-12-05T16:07:16.435Z,5.77
2022-12-05T16:10:23.456Z,3.60
2022-12-05T16:13:27.620Z,3.53
2022-12-05T16:16:36.991Z,3.50
2022-12-05T16:19:39.176Z,4.60
2022-12-05T16:22:45.192Z,4.17
2022-12-05T16:25:46.899Z,3.57
2022-12-05T16:29:01.897Z,3.90
2022-12-05T16:32:13.679Z,4.20
2022-12-05T16:35:39.564Z,5.10
2022-12-05T16:38:43.396Z,5.27
2022-12-05T16:41:44.920Z,5.30
2022-12-05T16:44:46.247Z,4.77
2022-12-05T16:47:47.607Z,4.27
2022-12-05T16:50:50.633Z,4.53
2022-12-05T16:53:54.460Z,8.87
2022-12-05T16:56:56.578Z,7.83
2022-12-05T16:59:57.989Z,6.73
2022-12-05T17:03:25.747Z,5.20
2022-12-05T17:06:23.273Z,4.87
2022-12-05T17:09:24.812Z,5.50
2022-12-05T17:12:26.342Z,6.00
2022-12-05T17:15:27.776Z,6.47
2022-12-05T17:18:31.844Z,6.13
2022-12-05T17:21:34.490Z,5.63
2022-12-05T17:24:36.187Z,5.47
2022-12-05T17:27:37.655Z,5.57
2022-12-05T17:30:39.849Z,5.50
2022-12-05T17:33:41.293Z,6.00
2022-12-05T17:36:44.195Z,5.53
2022-12-05T17:39:45.621Z,5.40
2022-12-05T17:42:47.216Z,5.00
2022-12-05T17:45:48.706Z,4.90
2022-12-05T17:48:51.280Z,5.80
2022-12-05T17:52:20.667Z,6.70
2022-12-05T17:55:23.814Z,6.90
2022-12-05T17:58:25.508Z,6.23
2022-12-05T18:01:27.141Z,7.30
2022-12-05T18:04:28.700Z,8.90
2022-12-05T18:07:30.341Z,8.87
2022-12-05T18:10:31.779Z,7.90
2022-12-05T18:13:33.913Z,8.10
2022-12-05T18:16:35.398Z,7.67
2022-12-05T18:19:36.985Z,7.77
2022-12-05T18:22:39.537Z,6.37
2022-12-05T18:25:41.655Z,6.13
2022-12-05T18:28:43.543Z,6.23
2022-12-05T18:31:44.984Z,6.03
2022-12-05T18:34:46.633Z,5.80
2022-12-05T18:37:48.028Z,6.83
2022-12-05T18:40:49.423Z,7.13
2022-12-05T18:43:51.069Z,7.80
2022-12-05T18:46:52.477Z,7.57
2022-12-05T18:49:53.987Z,7.73
2022-12-05T18:52:55.413Z,8.20
2022-12-05T18:56:26.090Z,8.23
2022-12-05T18:59:25.626Z,7.00
2022-12-05T19:02:27.076Z,8.83
2022-12-05T19:05:31.295Z,6.87
2022-12-05T19:08:32.683Z,6.40
2022-12-05T19:11:34.640Z,7.20
2022-12-05T19:14:37.711Z,6.70
2022-12-05T19:17:39.093Z,6.43
2022-12-05T19:20:40.562Z,7.50
2022-12-05T19:23:41.957Z,7.97
2022-12-05T19:26:44.235Z,6.97
2022-12-05T19:29:46.070Z,6.30
2022-12-05T19:32:47.463Z,7.17
2022-12-05T19:35:48.847Z,7.20
2022-12-05T19:38:52.631Z,7.07
2022-12-05T19:41:56.273Z,7.70
2022-12-05T19:45:00.903Z,9.37
2022-12-05T19:48:05.015Z,7.50
2022-12-05T19:51:06.699Z,6.57
2022-12-05T19:54:11.284Z,6.10
2022-12-05T19:57:12.659Z,5.03
2022-12-05T20:00:16.814Z,5.30
2022-12-05T20:03:18.421Z,4.50
2022-12-05T20:06:20.491Z,4.80
2022-12-05T20:09:22.325Z,4.73
2022-12-05T20:12:23.705Z,4.60
2022-12-05T20:15:25.177Z,4.97
2022-12-05T20:18:26.652Z,4.60
2022-12-05T20:21:30.675Z,4.37
2022-12-05T20:24:32.166Z,5.03
2022-12-05T20:27:34.324Z,4.90
2022-12-05T20:30:35.781Z,4.63
2022-12-05T20:33:37.799Z,4.70
2022-12-05T20:36:39.459Z,4.93
2022-12-05T20:39:40.977Z,5.00
2022-12-05T20:42:46.629Z,5.80
2022-12-05T20:45:48.552Z,5.80
2022-12-05T20:48:51.460Z,7.23
2022-12-05T20:51:52.889Z,8.20
2022-12-05T20:54:54.990Z,8.00
2022-12-05T20:57:56.484Z,7.40
2022-12-05T21:00:59.497Z,7.10
2022-12-05T21:04:01.869Z,11.10
2022-12-05T21:07:03.318Z,11.40
2022-12-05T21:10:08.349Z,11.00
2022-12-05T21:13:10.152Z,7.50
2022-12-05T21:16:14.900Z,6.70
2022-12-05T21:19:16.882Z,5.87
2022-12-05T21:22:18.282Z,5.33
2022-12-05T21:25:19.704Z,5.47
2022-12-05T21:28:21.490Z,6.00
2022-12-05T21:31:25.875Z,6.10
2022-12-05T21:34:27.367Z,7.00
2022-12-05T21:37:29.244Z,6.60
2022-12-05T21:40:30.682Z,6.90
2022-12-05T21:43:34.035Z,6.67
2022-12-05T21:46:35.796Z,6.40
2022-12-05T21:49:37.275Z,6.63
2022-12-05T21:52:39.590Z,6.53
2022-12-05T21:55:41.717Z,6.37
2022-12-05T21:58:46.264Z,6.43
2022-12-05T22:01:47.681Z,6.10
2022-12-05T22:04:49.230Z,7.10
2022-12-05T22:07:50.717Z,7.23
2022-12-05T22:10:52.188Z,7.33
2022-12-05T22:13:53.627Z,7.67
2022-12-05T22:16:55.101Z,8.43
2022-12-05T22:19:58.753Z,8.17
2022-12-05T22:23:00.428Z,7.07
2022-12-05T22:26:04.707Z,7.37
2022-12-05T22:29:06.454Z,7.47
2022-12-05T22:32:07.839Z,6.57
2022-12-05T22:35:09.271Z,6.40
2022-12-05T22:38:10.783Z,6.67
2022-12-05T22:41:15.705Z,6.20
2022-12-05T22:44:17.249Z,6.20
2022-12-05T22:47:18.666Z,6.23
2022-12-05T22:50:20.055Z,6.00
2022-12-05T22:53:24.041Z,6.60
2022-12-05T22:56:27.532Z,6.30
2022-12-05T22:59:28.919Z,7.10
2022-12-05T23:02:30.384Z,7.33
2022-12-05T23:05:31.873Z,6.63
2022-12-05T23:08:34.240Z,6.70
2022-12-05T23:11:38.052Z,6.10
2022-12-05T23:14:41.376Z,6.93
2022-12-05T23:17:43.169Z,6.57
2022-12-05T23:20:44.602Z,6.47
2022-12-05T23:23:47.188Z,6.40
2022-12-05T23:26:48.625Z,6.77
2022-12-05T23:29:50.429Z,6.20
2022-12-05T23:32:51.985Z,7.40
2022-12-05T23:35:53.910Z,6.33
2022-12-05T23:38:55.371Z,6.70
2022-12-05T23:41:56.895Z,6.43
2022-12-05T23:44:58.352Z,6.53
2022-12-05T23:48:04.414Z,6.27
2022-12-05T23:51:10.388Z,6.27
2022-12-05T23:54:12.147Z,6.50
2022-12-05T23:57:17.544Z,6.43
